Time;durP1;ratioP1;P1;durP2;ratioP2;P2;SDS_P1;SDS_P2;PMS_P1;PMS_P2;Temp;Humidity;BMP_temperature;BMP_pressure;BME280_temperature;BME280_humidity;BME280_pressure;Samples;Min_cycle;Max_cycle;Signal;HPM_P1;HPM_P2
2021/12/01 00:01:24;;;;;;;;;;;9.80;99.90;;;;;;5000855;28;19941;-78
2021/12/01 00:03:51;;;;;;;;;;;9.80;99.90;;;;;;4983131;28;19927;-75
2021/12/01 00:06:19;;;;;;;;;;;9.90;99.90;;;;;;4993256;28;19950;-80
2021/12/01 00:08:46;;;;;;;;;;;9.90;99.90;;;;;;4991380;28;19911;-77
2021/12/01 00:11:13;;;;;;;;;;;9.90;99.90;;;;;;4982848;28;19918;-79
2021/12/01 00:13:40;;;;;;;;;;;9.90;99.90;;;;;;5000720;28;19937;-75
2021/12/01 00:16:09;;;;;;;;;;;9.90;99.90;;;;;;4993049;28;19910;-78
2021/12/01 00:18:39;;;;;;;;;;;9.80;99.90;;;;;;4992379;28;19914;-76
2021/12/01 00:21:06;;;;;;;;;;;9.80;99.90;;;;;;4985584;28;19918;-77
2021/12/01 00:23:35;;;;;;;;;;;9.70;99.90;;;;;;4998982;28;19934;-75
2021/12/01 00:26:02;;;;;;;;;;;9.70;99.90;;;;;;5000541;28;19910;-72
2021/12/01 00:28:31;;;;;;;;;;;9.50;99.90;;;;;;4998652;28;19926;-80
2021/12/01 00:30:58;;;;;;;;;;;9.50;99.90;;;;;;4980853;28;19927;-81
2021/12/01 00:33:27;;;;;;;;;;;9.50;99.90;;;;;;4986816;28;19926;-83
2021/12/01 00:35:54;;;;;;;;;;;9.40;99.90;;;;;;4996568;28;19910;-75
2021/12/01 00:38:24;;;;;;;;;;;9.50;99.90;;;;;;4987074;28;19917;-79
2021/12/01 00:40:53;;;;;;;;;;;9.50;99.90;;;;;;4997107;28;19917;-73
2021/12/01 00:43:23;;;;;;;;;;;9.40;99.90;;;;;;4987933;28;19934;-75
2021/12/01 01:30:11;;;;;;;;;;;9.20;99.90;;;;;;5955775;23;19901;-71
2021/12/01 01:32:37;;;;;;;;;;;9.20;99.90;;;;;;4995980;28;19910;-71
2021/12/01 01:35:06;;;;;;;;;;;9.10;99.90;;;;;;5000025;28;19910;-69
2021/12/01 01:37:33;;;;;;;;;;;9.10;99.90;;;;;;4990324;28;19926;-81
2021/12/01 01:40:00;;;;;;;;;;;9.10;99.90;;;;;;4993353;28;19918;-76
2021/12/01 01:42:26;;;;;;;;;;;9.10;99.90;;;;;;4984073;28;19917;-71
2021/12/01 01:44:53;;;;;;;;;;;9.00;99.90;;;;;;4990319;28;19969;-79
2021/12/01 01:47:21;;;;;;;;;;;9.00;99.90;;;;;;4995253;28;19934;-71
2021/12/01 01:57:27;;;;;;;;;;;9.00;99.90;;;;;;5001990;28;19910;-71
2021/12/01 01:59:54;;;;;;;;;;;9.00;99.90;;;;;;5003524;28;19910;-72
2021/12/01 02:02:22;;;;;;;;;;;9.00;99.90;;;;;;5003342;28;19910;-73
2021/12/01 02:04:49;;;;;;;;;;;9.00;99.90;;;;;;4989202;28;19914;-81
2021/12/01 02:07:15;;;;;;;;;;;9.00;99.90;;;;;;4983165;28;19918;-71
2021/12/01 02:09:44;;;;;;;;;;;9.00;99.90;;;;;;4983909;28;19918;-70
2021/12/01 02:12:10;;;;;;;;;;;9.00;99.90;;;;;;4983429;28;19917;-71
2021/12/01 02:14:37;;;;;;;;;;;9.00;99.90;;;;;;4983808;28;19969;-71
2021/12/01 02:17:04;;;;;;;;;;;9.00;99.90;;;;;;4996990;28;19910;-71
2021/12/01 02:19:32;;;;;;;;;;;8.90;99.90;;;;;;5002726;28;19969;-71
2021/12/01 02:22:00;;;;;;;;;;;9.00;99.90;;;;;;5003059;28;19941;-71
2021/12/01 02:24:27;;;;;;;;;;;8.90;99.90;;;;;;5003042;28;19942;-74
2021/12/01 02:26:54;;;;;;;;;;;8.90;99.90;;;;;;5002986;28;19942;-70
2021/12/01 02:29:22;;;;;;;;;;;8.80;99.90;;;;;;5002974;28;19911;-71
2021/12/01 02:31:50;;;;;;;;;;;8.80;99.90;;;;;;4995454;28;19917;-72
2021/12/01 02:34:18;;;;;;;;;;;8.70;99.90;;;;;;4982289;28;19954;-80
2021/12/01 02:36:46;;;;;;;;;;;8.70;99.90;;;;;;4983227;28;19910;-70
2021/12/01 02:39:16;;;;;;;;;;;8.70;99.90;;;;;;4983426;28;19978;-70
2021/12/01 02:41:43;;;;;;;;;;;8.70;99.90;;;;;;4983359;28;19922;-71
2021/12/01 02:44:11;;;;;;;;;;;8.70;99.90;;;;;;4985037;28;19911;-71
2021/12/01 02:46:38;;;;;;;;;;;8.60;99.90;;;;;;5002465;28;19910;-71
2021/12/01 02:56:53;;;;;;;;;;;8.60;99.90;;;;;;5340143;23;19932;-71
2021/12/01 02:59:21;;;;;;;;;;;8.60;99.90;;;;;;5021609;28;19930;-70
2021/12/01 03:01:47;;;;;;;;;;;8.50;99.90;;;;;;5021836;28;19937;-72
2021/12/01 03:04:15;;;;;;;;;;;8.50;99.90;;;;;;5001648;28;19938;-79
2021/12/01 03:06:43;;;;;;;;;;;8.50;99.90;;;;;;5001812;28;19917;-76
2021/12/01 03:09:12;;;;;;;;;;;8.50;99.90;;;;;;5001954;28;19917;-73
2021/12/01 03:11:39;;;;;;;;;;;8.50;99.90;;;;;;5002038;28;19911;-75
2021/12/01 03:14:10;;;;;;;;;;;8.50;99.90;;;;;;5009643;28;19910;-69
2021/12/01 03:16:37;;;;;;;;;;;8.50;99.90;;;;;;5021658;28;19964;-69
2021/12/01 03:19:03;;;;;;;;;;;8.50;99.90;;;;;;5021670;28;19910;-70
2021/12/01 03:21:30;;;;;;;;;;;8.50;99.90;;;;;;5021603;28;19938;-70
2021/12/01 03:23:57;;;;;;;;;;;8.50;99.90;;;;;;5021337;28;19918;-69
2021/12/01 03:26:23;;;;;;;;;;;8.40;99.90;;;;;;5021171;28;19944;-73
2021/12/01 03:28:50;;;;;;;;;;;8.40;99.90;;;;;;5021183;28;19909;-70
2021/12/01 03:31:18;;;;;;;;;;;8.40;99.90;;;;;;5004798;28;19973;-72
2021/12/01 03:33:45;;;;;;;;;;;8.40;99.90;;;;;;5020361;28;19952;-71
2021/12/01 04:04:42;;;;;;;;;;;8.40;99.90;;;;;;5205990;23;19934;-70
2021/12/01 04:07:08;;;;;;;;;;;8.40;99.90;;;;;;5000924;28;19950;-71
2021/12/01 04:09:36;;;;;;;;;;;8.50;99.90;;;;;;4993211;28;19966;-79
2021/12/01 04:12:03;;;;;;;;;;;8.50;99.90;;;;;;4979243;28;19961;-78
2021/12/01 04:14:30;;;;;;;;;;;8.50;99.90;;;;;;4981567;28;19910;-70
2021/12/01 04:16:56;;;;;;;;;;;8.50;99.90;;;;;;4981390;28;19945;-77
2021/12/01 04:19:23;;;;;;;;;;;8.40;99.90;;;;;;4995561;28;19938;-70
2021/12/01 04:21:51;;;;;;;;;;;8.30;99.90;;;;;;5000608;28;19985;-73
2021/12/01 04:24:18;;;;;;;;;;;8.30;99.90;;;;;;4984527;28;19911;-70
2021/12/01 04:31:55;;;;;;;;;;;8.20;99.90;;;;;;5573139;23;19910;-71
2021/12/01 04:34:22;;;;;;;;;;;8.10;99.90;;;;;;5000455;28;19922;-71
2021/12/01 04:36:50;;;;;;;;;;;8.10;99.90;;;;;;4985674;28;19982;-71
2021/12/01 04:39:18;;;;;;;;;;;8.10;99.90;;;;;;4981276;28;19933;-71
2021/12/01 04:41:51;;;;;;;;;;;8.10;99.90;;;;;;4981133;28;19911;-71
2021/12/01 04:59:51;;;;;;;;;;;8.00;99.90;;;;;;5422269;23;19916;-69
2021/12/01 05:02:18;;;;;;;;;;;8.00;99.90;;;;;;5000247;28;19930;-69
2021/12/01 05:04:45;;;;;;;;;;;8.10;99.90;;;;;;5000218;28;19917;-73
2021/12/01 05:07:13;;;;;;;;;;;8.10;99.90;;;;;;5000273;28;19910;-70
2021/12/01 05:09:40;;;;;;;;;;;8.00;99.90;;;;;;5000044;28;19910;-70
2021/12/01 05:12:07;;;;;;;;;;;8.00;99.90;;;;;;5002558;28;19930;-72
2021/12/01 05:14:35;;;;;;;;;;;8.00;99.90;;;;;;5003952;28;19941;-71
2021/12/01 05:17:03;;;;;;;;;;;8.00;99.90;;;;;;4987522;28;19910;-70
2021/12/01 05:19:30;;;;;;;;;;;8.00;99.90;;;;;;5004051;28;19910;-70
2021/12/01 05:21:57;;;;;;;;;;;8.00;99.90;;;;;;5004256;28;19949;-75
2021/12/01 05:24:23;;;;;;;;;;;8.10;99.90;;;;;;4986365;28;19993;-73
2021/12/01 05:26:52;;;;;;;;;;;8.10;99.90;;;;;;5083628;23;19961;-70
2021/12/01 05:29:20;;;;;;;;;;;8.10;99.90;;;;;;5003398;28;19926;-80
2021/12/01 05:31:47;;;;;;;;;;;8.10;99.90;;;;;;5002867;28;19910;-77
2021/12/01 05:34:15;;;;;;;;;;;8.20;99.90;;;;;;4992734;28;19911;-79
2021/12/01 05:36:42;;;;;;;;;;;8.20;99.90;;;;;;4992953;28;19917;-75
2021/12/01 05:39:09;;;;;;;;;;;8.20;99.90;;;;;;4989737;28;19911;-72
2021/12/01 05:41:36;;;;;;;;;;;8.30;99.90;;;;;;4984150;28;19969;-71
2021/12/01 05:44:03;;;;;;;;;;;8.20;99.90;;;;;;4991925;28;19937;-80
2021/12/01 05:46:30;;;;;;;;;;;8.30;99.90;;;;;;4996739;28;19910;-80
2021/12/01 05:48:56;;;;;;;;;;;8.20;99.90;;;;;;4993170;28;19933;-78
2021/12/01 05:51:25;;;;;;;;;;;8.30;99.90;;;;;;4999443;28;19910;-80
2021/12/01 05:53:52;;;;;;;;;;;8.40;99.90;;;;;;5002441;28;19986;-76
2021/12/01 05:56:19;;;;;;;;;;;8.40;99.90;;;;;;5000581;28;19930;-80
2021/12/01 05:58:46;;;;;;;;;;;8.40;99.90;;;;;;4990498;28;19934;-76
2021/12/01 06:01:12;;;;;;;;;;;8.50;99.90;;;;;;5003222;28;19910;-72
2021/12/01 06:03:40;;;;;;;;;;;8.50;99.90;;;;;;5003180;28;19910;-71
2021/12/01 06:13:44;;;;;;;;;;;8.60;99.90;;;;;;5487410;23;19957;-81
2021/12/01 06:16:11;;;;;;;;;;;8.50;99.90;;;;;;4985780;28;19918;-81
2021/12/01 06:18:38;;;;;;;;;;;8.50;99.90;;;;;;4980156;28;19934;-80
2021/12/01 06:21:05;;;;;;;;;;;8.40;99.90;;;;;;4988327;28;19930;-79
2021/12/01 06:23:31;;;;;;;;;;;8.50;99.90;;;;;;4935701;28;19949;-80
2021/12/01 06:25:58;;;;;;;;;;;8.50;99.90;;;;;;4947143;28;20155;-80
2021/12/01 06:28:25;;;;;;;;;;;8.40;99.90;;;;;;4949209;28;19962;-81
2021/12/01 06:30:53;;;;;;;;;;;8.40;99.90;;;;;;4951160;28;19942;-79
2021/12/01 06:33:20;;;;;;;;;;;8.50;99.90;;;;;;4950428;28;20349;-78
2021/12/01 06:35:49;;;;;;;;;;;8.50;99.90;;;;;;4945061;28;19978;-79
2021/12/01 06:38:16;;;;;;;;;;;8.50;99.90;;;;;;4947682;28;19934;-79
2021/12/01 06:40:43;;;;;;;;;;;8.50;99.90;;;;;;4949191;28;20017;-79
2021/12/01 06:43:10;;;;;;;;;;;8.50;99.90;;;;;;4948899;28;20733;-80
2021/12/01 06:45:36;;;;;;;;;;;8.50;99.90;;;;;;4950901;28;19935;-80
2021/12/01 06:48:13;;;;;;;;;;;8.50;99.90;;;;;;4957467;28;19961;-81
2021/12/01 06:50:40;;;;;;;;;;;8.60;99.90;;;;;;4966251;28;19933;-80
2021/12/01 06:53:07;;;;;;;;;;;8.60;99.90;;;;;;4957325;28;20464;-79
2021/12/01 06:55:34;;;;;;;;;;;8.60;99.90;;;;;;4941413;28;19969;-80
2021/12/01 06:58:02;;;;;;;;;;;8.60;99.90;;;;;;4944544;28;20029;-80
2021/12/01 07:00:30;;;;;;;;;;;8.50;99.90;;;;;;4944287;28;19973;-80
2021/12/01 07:02:56;;;;;;;;;;;8.60;99.90;;;;;;4943748;28;19935;-79
2021/12/01 07:05:24;;;;;;;;;;;8.60;99.90;;;;;;4958203;28;19929;-79
2021/12/01 07:07:52;;;;;;;;;;;8.60;99.90;;;;;;4970627;28;19962;-80
2021/12/01 07:10:19;;;;;;;;;;;8.50;99.90;;;;;;4962316;29;19949;-80
2021/12/01 07:12:46;;;;;;;;;;;8.50;99.90;;;;;;4960974;28;19942;-77
2021/12/01 07:15:13;;;;;;;;;;;8.50;99.90;;;;;;4968821;28;19930;-80
2021/12/01 07:17:40;;;;;;;;;;;8.60;99.90;;;;;;4973737;28;19944;-75
2021/12/01 07:20:10;;;;;;;;;;;8.50;99.90;;;;;;4969602;28;19938;-78
2021/12/01 07:22:38;;;;;;;;;;;8.50;99.90;;;;;;4967899;28;19942;-72
2021/12/01 07:25:05;;;;;;;;;;;8.50;99.90;;;;;;4973330;28;20418;-79
2021/12/01 07:27:32;;;;;;;;;;;8.50;99.90;;;;;;4965005;28;19937;-79
2021/12/01 07:29:58;;;;;;;;;;;8.50;99.90;;;;;;4974441;28;19982;-78
2021/12/01 07:32:25;;;;;;;;;;;8.50;99.90;;;;;;4954602;29;19911;-79
2021/12/01 07:34:52;;;;;;;;;;;8.50;99.90;;;;;;4954114;28;19998;-79
2021/12/01 07:37:18;;;;;;;;;;;8.50;99.90;;;;;;4952786;28;19927;-79
2021/12/01 07:39:49;;;;;;;;;;;8.50;99.90;;;;;;4952844;29;19933;-78
2021/12/01 07:42:16;;;;;;;;;;;8.50;99.90;;;;;;4955662;28;20398;-79
2021/12/01 07:44:43;;;;;;;;;;;8.50;99.90;;;;;;4947796;29;19927;-79
2021/12/01 07:47:11;;;;;;;;;;;8.50;99.90;;;;;;4942979;29;19930;-77
2021/12/01 07:49:38;;;;;;;;;;;8.50;99.90;;;;;;4948101;28;19927;-76
2021/12/01 07:52:05;;;;;;;;;;;8.50;99.90;;;;;;4952157;29;20021;-78
2021/12/01 07:54:32;;;;;;;;;;;8.50;99.90;;;;;;4952407;29;19931;-80
2021/12/01 07:57:01;;;;;;;;;;;8.50;99.90;;;;;;4971018;28;20017;-79
2021/12/01 07:59:28;;;;;;;;;;;8.50;99.90;;;;;;4954291;29;20398;-80
2021/12/01 08:01:54;;;;;;;;;;;8.50;99.90;;;;;;4941439;29;19974;-78
2021/12/01 08:04:21;;;;;;;;;;;8.60;99.90;;;;;;4958050;29;20013;-78
2021/12/01 08:06:48;;;;;;;;;;;8.50;99.90;;;;;;4952522;29;19933;-80
2021/12/01 08:09:14;;;;;;;;;;;8.60;99.90;;;;;;4952355;29;19961;-79
2021/12/01 08:11:41;;;;;;;;;;;8.60;99.90;;;;;;4952108;29;19978;-77
2021/12/01 08:14:09;;;;;;;;;;;8.70;99.90;;;;;;4954455;28;19933;-80
2021/12/01 08:16:36;;;;;;;;;;;8.70;99.90;;;;;;4962840;28;19962;-77
2021/12/01 08:19:03;;;;;;;;;;;8.70;99.90;;;;;;4942712;29;20492;-77
2021/12/01 08:21:30;;;;;;;;;;;8.70;99.90;;;;;;4945386;29;19935;-77
2021/12/01 08:23:57;;;;;;;;;;;8.80;99.90;;;;;;4940471;29;19926;-77
2021/12/01 08:26:24;;;;;;;;;;;8.80;99.90;;;;;;4948741;29;20019;-76
2021/12/01 08:28:52;;;;;;;;;;;8.80;99.90;;;;;;4934628;29;19935;-78
2021/12/01 08:31:20;;;;;;;;;;;8.80;99.90;;;;;;4942493;29;19934;-79
2021/12/01 08:33:47;;;;;;;;;;;8.80;99.90;;;;;;4940317;28;19926;-76
2021/12/01 08:36:14;;;;;;;;;;;8.90;99.90;;;;;;4941003;29;20422;-76
2021/12/01 08:38:41;;;;;;;;;;;8.80;99.90;;;;;;4933042;28;19981;-77
2021/12/01 08:41:08;;;;;;;;;;;8.90;99.90;;;;;;4937450;29;19926;-75
2021/12/01 08:43:36;;;;;;;;;;;8.90;99.90;;;;;;4938202;29;19934;-76
2021/12/01 08:46:03;;;;;;;;;;;8.90;99.90;;;;;;4935681;28;19949;-78
2021/12/01 08:48:32;;;;;;;;;;;8.90;99.90;;;;;;4946472;29;19933;-78
2021/12/01 08:51:01;;;;;;;;;;;9.00;99.90;;;;;;4950615;28;19934;-78
2021/12/01 08:53:28;;;;;;;;;;;9.00;99.90;;;;;;4937377;29;19966;-78
2021/12/01 08:55:57;;;;;;;;;;;9.00;99.90;;;;;;4949022;29;19933;-77
2021/12/01 08:58:26;;;;;;;;;;;9.00;99.90;;;;;;4944144;28;21322;-77
2021/12/01 09:00:54;;;;;;;;;;;9.00;99.90;;;;;;4943612;29;20037;-78
2021/12/01 09:03:21;;;;;;;;;;;9.00;99.90;;;;;;4940665;29;19927;-77
2021/12/01 09:05:49;;;;;;;;;;;9.00;99.90;;;;;;4940231;28;20076;-77
2021/12/01 09:08:19;;;;;;;;;;;9.10;99.90;;;;;;4938474;29;20376;-77
2021/12/01 09:10:46;;;;;;;;;;;9.20;99.90;;;;;;4940772;29;19955;-77
2021/12/01 09:13:15;;;;;;;;;;;9.30;99.90;;;;;;4942182;29;20070;-76
2021/12/01 09:15:42;;;;;;;;;;;9.30;99.90;;;;;;4957352;28;19910;-77
2021/12/01 09:18:09;;;;;;;;;;;9.20;99.90;;;;;;4931734;29;20359;-78
2021/12/01 09:20:36;;;;;;;;;;;9.20;99.90;;;;;;4944755;29;20009;-78
2021/12/01 09:23:07;;;;;;;;;;;9.20;99.90;;;;;;4942467;29;19930;-78
2021/12/01 09:25:34;;;;;;;;;;;9.20;99.90;;;;;;4945619;28;19934;-79
2021/12/01 09:28:01;;;;;;;;;;;9.20;99.90;;;;;;4937897;28;19927;-77
2021/12/01 09:30:28;;;;;;;;;;;9.10;99.90;;;;;;4940147;28;20431;-78
2021/12/01 09:32:55;;;;;;;;;;;9.10;99.90;;;;;;4942295;29;20505;-78
2021/12/01 09:35:21;;;;;;;;;;;9.20;99.90;;;;;;4944166;29;20508;-78
2021/12/01 09:37:48;;;;;;;;;;;9.20;99.90;;;;;;4942722;29;19933;-78
2021/12/01 09:40:17;;;;;;;;;;;9.20;99.90;;;;;;4941192;29;20326;-79
2021/12/01 09:42:45;;;;;;;;;;;9.20;99.90;;;;;;4948311;29;19927;-78
2021/12/01 09:45:12;;;;;;;;;;;9.30;99.90;;;;;;4943013;29;19930;-78
2021/12/01 09:47:39;;;;;;;;;;;9.30;99.90;;;;;;4941611;29;19981;-79
2021/12/01 09:50:07;;;;;;;;;;;9.40;99.90;;;;;;4938516;29;19927;-78
2021/12/01 09:52:33;;;;;;;;;;;9.40;99.90;;;;;;4942107;28;19934;-79
2021/12/01 09:55:00;;;;;;;;;;;9.50;99.90;;;;;;4945955;28;20358;-79
2021/12/01 09:57:28;;;;;;;;;;;9.50;99.90;;;;;;4952186;28;19986;-76
2021/12/01 09:59:55;;;;;;;;;;;9.40;99.90;;;;;;4966964;28;19970;-84
2021/12/01 10:02:24;;;;;;;;;;;9.50;99.90;;;;;;4965517;28;20021;-79
2021/12/01 10:04:51;;;;;;;;;;;9.70;99.90;;;;;;4947320;29;19935;-85
2021/12/01 10:07:19;;;;;;;;;;;9.80;99.90;;;;;;4949927;29;19927;-84
2021/12/01 10:09:46;;;;;;;;;;;9.80;99.90;;;;;;4953079;28;19933;-89
2021/12/01 10:12:14;;;;;;;;;;;9.80;99.90;;;;;;4960511;28;19977;-78
2021/12/01 10:14:45;;;;;;;;;;;9.70;99.90;;;;;;4958630;29;19917;-77
2021/12/01 10:17:13;;;;;;;;;;;9.60;99.90;;;;;;4963948;28;19926;-81
2021/12/01 10:19:39;;;;;;;;;;;9.50;99.90;;;;;;4961141;29;19973;-84
2021/12/01 10:22:08;;;;;;;;;;;9.50;99.90;;;;;;4944594;28;19935;-86
2021/12/01 10:24:36;;;;;;;;;;;9.50;99.90;;;;;;4945873;28;19927;-79
2021/12/01 10:27:04;;;;;;;;;;;9.40;99.90;;;;;;4953783;29;19934;-80
2021/12/01 10:29:31;;;;;;;;;;;9.40;99.90;;;;;;4949777;29;20374;-79
2021/12/01 10:31:59;;;;;;;;;;;9.50;99.90;;;;;;4953085;29;19993;-80
2021/12/01 10:34:28;;;;;;;;;;;9.40;99.90;;;;;;4943019;29;20409;-78
2021/12/01 10:37:09;;;;;;;;;;;9.30;99.90;;;;;;4938508;29;19934;-77
2021/12/01 10:39:35;;;;;;;;;;;9.30;99.90;;;;;;4947929;29;20419;-77
2021/12/01 10:42:04;;;;;;;;;;;9.30;99.90;;;;;;4935973;28;19942;-76
2021/12/01 10:44:30;;;;;;;;;;;9.40;99.90;;;;;;4935069;28;20311;-76
2021/12/01 10:47:06;;;;;;;;;;;9.50;99.90;;;;;;4941457;28;19926;-77
2021/12/01 10:49:33;;;;;;;;;;;9.80;99.90;;;;;;4937930;28;20395;-78
2021/12/01 10:52:00;;;;;;;;;;;9.80;99.90;;;;;;4943401;29;19935;-77
2021/12/01 10:54:27;;;;;;;;;;;9.80;99.90;;;;;;4936075;29;20284;-83
2021/12/01 10:57:11;;;;;;;;;;;9.80;99.90;;;;;;4937527;28;19994;-78
2021/12/01 10:59:43;;;;;;;;;;;9.50;99.90;;;;;;4946003;29;19977;-78
2021/12/01 11:02:12;;;;;;;;;;;9.30;99.90;;;;;;4937839;29;20319;-79
2021/12/01 11:04:42;;;;;;;;;;;9.20;99.90;;;;;;4943452;29;20005;-80
2021/12/01 11:07:23;;;;;;;;;;;9.10;99.90;;;;;;4938995;29;19931;-76
2021/12/01 11:10:08;;;;;;;;;;;9.10;99.90;;;;;;4932764;28;19941;-77
2021/12/01 11:12:35;;;;;;;;;;;9.10;99.90;;;;;;4943273;29;19926;-77
2021/12/01 11:15:15;;;;;;;;;;;9.10;99.90;;;;;;4938574;29;19927;-79
2021/12/01 11:17:44;;;;;;;;;;;9.10;99.90;;;;;;4937442;28;19944;-79
2021/12/01 11:20:11;;;;;;;;;;;9.20;99.90;;;;;;4943510;28;20057;-78
2021/12/01 11:22:38;;;;;;;;;;;9.10;99.90;;;;;;4938158;28;20434;-78
2021/12/01 11:25:19;;;;;;;;;;;9.20;99.90;;;;;;4942389;29;20454;-81
2021/12/01 11:27:46;;;;;;;;;;;9.30;99.90;;;;;;4937642;28;20395;-84
2021/12/01 11:30:12;;;;;;;;;;;9.50;99.90;;;;;;4943078;29;19935;-79
2021/12/01 11:32:39;;;;;;;;;;;9.60;99.90;;;;;;4936201;29;19926;-82
2021/12/01 11:35:08;;;;;;;;;;;9.70;99.90;;;;;;4929336;28;20046;-82
2021/12/01 11:37:35;;;;;;;;;;;9.60;99.90;;;;;;4928732;28;19934;-78
2021/12/01 11:40:02;;;;;;;;;;;9.60;99.90;;;;;;4930731;28;19982;-78
2021/12/01 11:42:29;;;;;;;;;;;9.50;99.90;;;;;;4927503;28;20024;-79
2021/12/01 11:44:56;;;;;;;;;;;9.70;99.90;;;;;;4927382;28;20347;-79
2021/12/01 11:47:23;;;;;;;;;;;9.70;99.90;;;;;;4926341;28;20036;-79
2021/12/01 11:49:53;;;;;;;;;;;9.60;99.90;;;;;;4930768;28;19934;-79
2021/12/01 11:52:22;;;;;;;;;;;9.60;99.90;;;;;;4936414;28;19969;-79
2021/12/01 11:54:49;;;;;;;;;;;9.60;99.90;;;;;;4944355;29;20099;-79
2021/12/01 11:57:17;;;;;;;;;;;9.50;99.90;;;;;;4951422;29;19931;-80
2021/12/01 11:59:45;;;;;;;;;;;9.50;99.90;;;;;;4942814;28;20419;-79
2021/12/01 12:02:22;;;;;;;;;;;9.40;99.90;;;;;;4932224;28;19934;-78
2021/12/01 12:04:49;;;;;;;;;;;9.50;99.90;;;;;;4930796;28;19958;-83
2021/12/01 12:07:22;;;;;;;;;;;9.60;99.90;;;;;;4928652;28;20069;-82
2021/12/01 12:10:06;;;;;;;;;;;9.60;99.90;;;;;;4925986;28;20404;-77
2021/12/01 12:12:43;;;;;;;;;;;9.60;99.90;;;;;;4927006;28;19938;-78
2021/12/01 12:15:10;;;;;;;;;;;9.50;99.90;;;;;;4924926;28;19934;-78
2021/12/01 12:17:37;;;;;;;;;;;9.40;99.90;;;;;;4930267;28;20437;-78
2021/12/01 12:20:13;;;;;;;;;;;9.30;99.90;;;;;;4934156;28;19977;-79
2021/12/01 12:23:04;;;;;;;;;;;9.30;99.90;;;;;;4939002;28;20061;-78
2021/12/01 12:25:39;;;;;;;;;;;9.30;99.90;;;;;;4926862;28;21185;-77
2021/12/01 12:28:20;;;;;;;;;;;9.30;99.90;;;;;;4935617;28;19930;-79
2021/12/01 12:30:46;;;;;;;;;;;9.30;99.90;;;;;;4935733;28;19935;-81
2021/12/01 12:33:16;;;;;;;;;;;9.30;99.90;;;;;;4945146;28;19927;-78
2021/12/01 12:35:44;;;;;;;;;;;9.30;99.90;;;;;;4940833;29;19941;-80
2021/12/01 12:38:14;;;;;;;;;;;9.30;99.90;;;;;;4948404;28;19937;-82
2021/12/01 12:40:41;;;;;;;;;;;9.30;99.90;;;;;;4956791;28;20185;-79
2021/12/01 12:43:12;;;;;;;;;;;9.30;99.90;;;;;;4956538;29;19961;-78
2021/12/01 12:45:40;;;;;;;;;;;9.20;99.90;;;;;;4927645;28;19935;-77
2021/12/01 12:48:25;;;;;;;;;;;9.10;99.90;;;;;;4934114;29;19937;-80
2021/12/01 12:51:11;;;;;;;;;;;9.00;99.90;;;;;;4927450;28;19934;-82
2021/12/01 12:53:59;;;;;;;;;;;9.00;99.90;;;;;;4928427;29;19935;-83
2021/12/01 12:56:26;;;;;;;;;;;8.90;99.90;;;;;;4926847;28;19974;-77
2021/12/01 12:58:53;;;;;;;;;;;8.90;99.90;;;;;;4938584;28;19945;-81
2021/12/01 13:01:24;;;;;;;;;;;8.90;99.90;;;;;;4935799;28;19941;-79
2021/12/01 13:03:51;;;;;;;;;;;8.90;99.90;;;;;;4928292;29;19942;-79
2021/12/01 13:06:27;;;;;;;;;;;8.90;99.90;;;;;;4942804;28;19934;-86
2021/12/01 13:09:14;;;;;;;;;;;9.00;99.90;;;;;;4963131;28;19915;-80
2021/12/01 13:11:41;;;;;;;;;;;9.00;99.90;;;;;;4939236;28;20001;-76
2021/12/01 13:14:08;;;;;;;;;;;9.00;99.90;;;;;;4922485;28;19998;-76
2021/12/01 13:16:34;;;;;;;;;;;9.00;99.90;;;;;;4927356;28;20700;-77
2021/12/01 13:19:04;;;;;;;;;;;9.10;99.90;;;;;;4924512;29;19970;-80
2021/12/01 13:21:30;;;;;;;;;;;9.10;99.90;;;;;;4930566;28;19982;-76
2021/12/01 13:23:58;;;;;;;;;;;9.10;99.90;;;;;;4929388;28;19926;-78
2021/12/01 13:26:28;;;;;;;;;;;9.00;99.90;;;;;;4944455;29;19933;-78
2021/12/01 13:28:55;;;;;;;;;;;9.00;99.90;;;;;;4936210;28;20025;-79
2021/12/01 13:31:23;;;;;;;;;;;9.00;99.90;;;;;;4940988;29;20017;-80
2021/12/01 13:33:57;;;;;;;;;;;9.00;99.90;;;;;;4941846;29;19934;-77
2021/12/01 13:36:25;;;;;;;;;;;9.00;99.90;;;;;;4942866;29;19933;-79
2021/12/01 13:39:07;;;;;;;;;;;9.00;99.90;;;;;;4947777;29;20017;-79
2021/12/01 13:41:35;;;;;;;;;;;9.00;99.90;;;;;;4950824;28;19998;-75
2021/12/01 13:44:02;;;;;;;;;;;8.90;99.90;;;;;;4966334;28;19961;-76
2021/12/01 13:46:29;;;;;;;;;;;8.90;99.90;;;;;;4946553;29;19970;-79
2021/12/01 13:48:56;;;;;;;;;;;8.80;99.90;;;;;;4945561;28;20613;-76
2021/12/01 13:51:23;;;;;;;;;;;8.80;99.90;;;;;;4946746;28;20025;-79
2021/12/01 13:53:50;;;;;;;;;;;8.70;99.90;;;;;;4953755;29;19927;-79
2021/12/01 13:56:19;;;;;;;;;;;8.70;99.90;;;;;;4950599;28;19938;-77
2021/12/01 13:58:47;;;;;;;;;;;8.60;99.90;;;;;;4949635;29;20300;-78
2021/12/01 14:01:14;;;;;;;;;;;8.60;99.90;;;;;;4947093;29;19937;-79
2021/12/01 14:03:41;;;;;;;;;;;8.60;99.90;;;;;;4946659;29;19984;-76
2021/12/01 14:06:10;;;;;;;;;;;8.60;99.90;;;;;;4946280;29;19933;-77
2021/12/01 14:08:38;;;;;;;;;;;8.60;99.90;;;;;;4937542;29;20269;-79
2021/12/01 14:11:22;;;;;;;;;;;8.60;99.90;;;;;;4940990;28;19942;-76
2021/12/01 14:13:51;;;;;;;;;;;8.60;99.90;;;;;;4943402;29;19933;-78
2021/12/01 14:16:21;;;;;;;;;;;8.60;99.90;;;;;;4944926;29;19966;-77
2021/12/01 14:18:48;;;;;;;;;;;8.60;99.90;;;;;;4944833;28;20451;-77
2021/12/01 14:21:16;;;;;;;;;;;8.60;99.90;;;;;;4942535;29;19933;-77
2021/12/01 14:23:45;;;;;;;;;;;8.50;99.90;;;;;;4935908;29;19930;-76
2021/12/01 14:26:12;;;;;;;;;;;8.50;99.90;;;;;;4939309;29;19927;-77
2021/12/01 14:28:39;;;;;;;;;;;8.40;99.90;;;;;;4937273;29;20387;-78
2021/12/01 14:31:07;;;;;;;;;;;8.30;99.90;;;;;;4947282;29;19926;-78
2021/12/01 14:33:33;;;;;;;;;;;8.30;99.90;;;;;;4949002;29;19935;-80
2021/12/01 14:36:01;;;;;;;;;;;8.30;99.90;;;;;;4964022;28;20383;-78
2021/12/01 14:38:30;;;;;;;;;;;8.30;99.90;;;;;;4947874;29;19927;-77
2021/12/01 14:40:57;;;;;;;;;;;8.30;99.90;;;;;;4952168;29;19930;-77
2021/12/01 14:43:27;;;;;;;;;;;8.40;99.90;;;;;;4944034;28;19934;-79
2021/12/01 14:45:53;;;;;;;;;;;8.40;99.90;;;;;;4940782;29;19926;-78
2021/12/01 14:48:22;;;;;;;;;;;8.30;99.90;;;;;;4939008;29;20311;-76
2021/12/01 14:50:50;;;;;;;;;;;8.40;99.90;;;;;;4939475;28;19926;-77
2021/12/01 14:53:17;;;;;;;;;;;8.30;99.90;;;;;;4932188;28;20033;-80
2021/12/01 14:55:46;;;;;;;;;;;8.30;99.90;;;;;;4947113;28;20276;-78
2021/12/01 14:58:14;;;;;;;;;;;8.30;99.90;;;;;;4942691;28;19939;-77
2021/12/01 15:00:42;;;;;;;;;;;8.30;99.90;;;;;;4943525;29;19931;-77
2021/12/01 15:03:10;;;;;;;;;;;8.30;99.90;;;;;;4947738;29;20407;-77
2021/12/01 15:05:49;;;;;;;;;;;8.20;99.90;;;;;;4940791;29;19934;-80
2021/12/01 15:08:23;;;;;;;;;;;8.20;99.90;;;;;;4935532;29;19966;-80
2021/12/01 15:10:50;;;;;;;;;;;8.20;99.90;;;;;;4937921;29;19927;-80
2021/12/01 15:13:18;;;;;;;;;;;8.20;99.90;;;;;;4947898;29;19933;-79
2021/12/01 15:15:46;;;;;;;;;;;8.20;99.90;;;;;;4940287;29;19940;-79
2021/12/01 15:18:19;;;;;;;;;;;8.20;99.90;;;;;;4936714;29;19933;-79
2021/12/01 15:20:54;;;;;;;;;;;8.20;99.90;;;;;;4951495;29;19931;-79
2021/12/01 15:23:22;;;;;;;;;;;8.30;99.90;;;;;;4956970;28;19998;-80
2021/12/01 15:25:49;;;;;;;;;;;8.30;99.90;;;;;;4961790;29;19926;-80
2021/12/01 15:28:15;;;;;;;;;;;8.30;99.90;;;;;;4961831;29;19975;-81
2021/12/01 15:30:45;;;;;;;;;;;8.20;99.90;;;;;;4960742;28;19926;-80
2021/12/01 15:33:13;;;;;;;;;;;8.20;99.90;;;;;;4944760;29;20395;-79
2021/12/01 15:35:40;;;;;;;;;;;8.20;99.90;;;;;;4949297;29;20050;-78
2021/12/01 15:38:08;;;;;;;;;;;8.10;99.90;;;;;;4942934;29;19935;-80
2021/12/01 15:40:35;;;;;;;;;;;8.10;99.90;;;;;;4949281;29;20395;-80
2021/12/01 15:43:02;;;;;;;;;;;8.10;99.90;;;;;;4944819;29;19926;-78
2021/12/01 15:45:29;;;;;;;;;;;8.10;99.90;;;;;;4933151;29;19931;-78
2021/12/01 15:47:55;;;;;;;;;;;8.10;99.90;;;;;;4945068;29;19927;-78
2021/12/01 15:50:25;;;;;;;;;;;8.10;99.90;;;;;;4942737;29;19962;-79
2021/12/01 15:52:52;;;;;;;;;;;8.10;99.90;;;;;;4949441;28;20292;-78
2021/12/01 15:55:21;;;;;;;;;;;8.10;99.90;;;;;;4950760;28;19958;-78
2021/12/01 15:57:47;;;;;;;;;;;8.10;99.90;;;;;;4941323;28;19944;-78
2021/12/01 16:00:17;;;;;;;;;;;8.00;99.90;;;;;;4939776;28;19966;-79
2021/12/01 16:02:44;;;;;;;;;;;8.00;99.90;;;;;;4934307;28;19934;-78
2021/12/01 16:05:11;;;;;;;;;;;7.90;99.90;;;;;;4946056;29;19930;-78
2021/12/01 16:07:37;;;;;;;;;;;7.80;99.90;;;;;;4938330;29;19949;-78
2021/12/01 16:10:04;;;;;;;;;;;7.70;99.90;;;;;;4944575;28;20031;-79
2021/12/01 16:12:32;;;;;;;;;;;7.60;99.90;;;;;;4931041;28;20025;-73
2021/12/01 16:15:00;;;;;;;;;;;7.50;99.90;;;;;;4932418;28;20026;-76
2021/12/01 16:17:30;;;;;;;;;;;7.40;99.90;;;;;;4925422;28;20031;-76
2021/12/01 16:19:58;;;;;;;;;;;7.40;99.90;;;;;;4927193;28;19978;-78
2021/12/01 16:22:24;;;;;;;;;;;7.40;99.90;;;;;;4926790;28;19946;-77
2021/12/01 16:24:51;;;;;;;;;;;7.50;99.90;;;;;;4928617;28;19931;-76
2021/12/01 16:27:18;;;;;;;;;;;7.40;99.90;;;;;;4927613;28;19930;-78
2021/12/01 16:29:46;;;;;;;;;;;7.50;99.90;;;;;;4935108;28;19938;-79
2021/12/01 16:32:13;;;;;;;;;;;7.50;99.90;;;;;;4926226;28;19930;-78
2021/12/01 16:34:40;;;;;;;;;;;7.50;99.90;;;;;;4929687;28;19982;-77